• Join FlightAware (Why Join?)
  • Login
  • US Flag 
04:59PM EDT


 

Airport Tracker/Info


-or-


 

Live Flight TrackerFlight Track Log ✈ QLK101D ✈ 18-Jul-2013 ✈ YCFS - YSSY / SYD

Flight Track Log - Related Links

Times and Time Zones

All times are in EDT time to prevent confusion due to time zone crossing. See the QLK101D flight status page for this flight to view local times or setup timezone preferences in your user account.

Time Position Orientation Groundspeed Altitude Reporting Facility
EDT Latitude Longitude Course Direction KTS MPH feet Rate Location/Type
04:44PM -30.4542 153.0028 211° Southwest 22,000  Level Aus ATC (Calculated)
04:45PM -30.5015 152.9646 208° Southwest 22,000 -5,580 Level Aus ATC (Calculated)
04:47PM -30.6015 152.9147 215° Southwest  Level Estimated
04:47PM -30.5787 152.9168 215° Southwest 333 383 8,600  Level Aus ATC (RADAR)
04:48PM -30.6482 152.8539 218° Southwest 280 322 10,800 1,800 Climbing Aus ATC (RADAR)
04:49PM -30.7146 152.8016 214° Southwest 290 334 12,500 1,560 Climbing Aus ATC (RADAR)
04:50PM -30.8016 152.7286 216° Southwest 289 333 14,500 1,380 Climbing Aus ATC (RADAR)
04:51PM -30.8625 152.6789 215° Southwest 294 338 15,700 1,200 Climbing Aus ATC (RADAR)
04:52PM -30.9344 152.6204 215° Southwest 294 338 17,000 1,020 Climbing Aus ATC (RADAR)
04:54PM -31.0180 152.5504 216° Southwest 299 344 18,100 900 Climbing Aus ATC (RADAR)
04:55PM -31.0928 152.4881 216° Southwest 306 352 19,100 900 Climbing Aus ATC (RADAR)
04:56PM -31.1679 152.4260 215° Southwest 304 350 20,100 960 Climbing Aus ATC (RADAR)
04:57PM -31.2429 152.3641 215° Southwest 305 351 21,200 840 Climbing Aus ATC (RADAR)
04:58PM -31.3176 152.3021 215° Southwest 306 352 22,000 480 Climbing Aus ATC (RADAR)
04:59PM -31.3904 152.2396 216° Southwest 295 339 22,300 120 Climbing Aus ATC (RADAR)
05:00PM -31.4753 152.1709 215° Southwest 277 319 22,300  Level Aus ATC (RADAR)
05:01PM -31.5369 152.1193 216° Southwest 272 313 22,300  Level Aus ATC (RADAR)
05:02PM -31.5709 152.0902 216° Southwest 266 306 22,300  Level Aus ATC (RADAR)
05:03PM -31.6082 152.0593 215° Southwest 270 311 22,300  Level Aus ATC (RADAR)
05:04PM -31.6746 152.0034 216° Southwest 273 314 22,300  Level Aus ATC (RADAR)
05:04PM -31.7104 151.9730 216° Southwest 274 315 22,300  Level Aus ATC (RADAR)
05:05PM -31.7415 151.9471 215° Southwest 276 318 22,300  Level Aus ATC (RADAR)
05:05PM -31.7827 151.9124 216° Southwest 273 314 22,300  Level Aus ATC (RADAR)
05:06PM -31.8277 151.8739 216° Southwest 270 311 22,300  Level Aus ATC (RADAR)
05:07PM -31.8914 151.8208 215° Southwest 276 318 22,300  Level Aus ATC (RADAR)
05:08PM -31.9329 151.7858 216° Southwest 276 318 22,300  Level Aus ATC (RADAR)
05:08PM -31.9678 151.7561 216° Southwest 273 314 22,300  Level Aus ATC (RADAR)
05:09PM -32.0041 151.7251 216° Southwest 273 314 22,300  Level Aus ATC (RADAR)
05:10PM -32.0405 151.6944 216° Southwest 272 313 22,300  Level Aus ATC (RADAR)
05:10PM -32.0822 151.6591 216° Southwest 273 314 22,300  Level Aus ATC (RADAR)
05:11PM -32.1448 151.6057 216° Southwest 273 314 22,300  Level Aus ATC (RADAR)
05:12PM -32.1814 151.5747 216° Southwest 274 315 22,300  Level Aus ATC (RADAR)
05:12PM -32.2182 151.5439 215° Southwest 274 315 22,300  Level Aus ATC (RADAR)
05:13PM -32.2550 151.5125 216° Southwest 275 316 22,300  Level Aus ATC (RADAR)
05:13PM -32.2929 151.4796 216° Southwest 281 323 22,300  Level Aus ATC (RADAR)
05:14PM -32.3337 151.4450 216° Southwest 275 316 22,300  Level Aus ATC (RADAR)
05:16PM -32.4444 151.3501 216° Southwest 277 319 22,300  Level Aus ATC (RADAR)
05:16PM -32.4760 151.3231 216° Southwest 277 319 22,300  Level Aus ATC (RADAR)
05:17PM -32.5340 151.2733 216° Southwest 278 320 22,300  Level Aus ATC (RADAR)
05:18PM -32.5821 151.2527 200° South 271 312 22,300  Level Aus ATC (RADAR)
05:19PM -32.6293 151.2525 180° South 284 327 22,300  Level Aus ATC (RADAR)
05:19PM -32.6777 151.2516 181° South 286 329 22,300  Level Aus ATC (RADAR)
05:20PM -32.7164 151.2497 182° South 290 334 22,300  Level Aus ATC (RADAR)
05:20PM -32.7847 151.2453 183° South 287 330 22,300 -120 Level Aus ATC (RADAR)
05:21PM -32.8300 151.2427 183° South 289 333 22,200 -1,080 Descending Aus ATC (RADAR)
05:22PM -32.9122 151.2366 184° South 297 342 20,600 -1,560 Descending Aus ATC (RADAR)
05:23PM -32.9677 151.2354 181° South 300 345 19,600 -1,620 Descending Aus ATC (RADAR)
05:23PM -33.0161 151.2331 182° South 300 345 18,600 -1,680 Descending Aus ATC (RADAR)
05:24PM -33.0714 151.2293 183° South 285 328 17,600 -1,560 Descending Aus ATC (RADAR)
05:25PM -33.1153 151.2271 182° South 281 323 16,700 -1,440 Descending Aus ATC (RADAR)
05:25PM -33.1593 151.2240 183° South 274 315 15,900 -1,440 Descending Aus ATC (RADAR)
05:26PM -33.2258 151.2208 182° South 262 302 14,600 -1,440 Descending Aus ATC (RADAR)
05:27PM -33.2982 151.2176 182° South 261 300 13,200 -1,440 Descending Aus ATC (RADAR)
05:28PM -33.3548 151.2143 183° South 275 316 12,200 -1,440 Descending Aus ATC (RADAR)
05:28PM -33.3983 151.2114 183° South 274 315 11,300 -1,740 Descending Aus ATC (RADAR)
05:29PM -33.4444 151.2083 183° South 276 318 10,200 -1,680 Descending Aus ATC (RADAR)
05:29PM -33.4814 151.2058 183° South 268 308 9,500 -1,500 Descending Aus ATC (RADAR)
05:30PM -33.5235 151.2038 182° South 260 299 8,600 -1,380 Descending Aus ATC (RADAR)
05:31PM -33.6097 151.1994 182° South 242 278 7,000 -1,200 Descending Aus ATC (RADAR)
05:32PM -33.6788 151.1979 181° South 252 290 6,000 -600 Descending Aus ATC (RADAR)
05:33PM -33.7201 151.2235 153° Southeast 248 285 6,000  Level Aus ATC (RADAR)
05:34PM -33.7554 151.2459 152° Southeast 245 282 6,000  Level Aus ATC (RADAR)
05:34PM -33.7907 151.2681 152° Southeast 246 283 6,000  Level Aus ATC (RADAR)
05:35PM -33.8212 151.2872 153° Southeast 246 283 6,000  Level Aus ATC (RADAR)
05:35PM -33.8570 151.3096 153° Southeast 249 287 6,000  Level Aus ATC (RADAR)
05:36PM -33.9176 151.3340 162° South 249 287 6,000  Level Aus ATC (RADAR)
05:37PM -33.9516 151.3477 162° South 245 282 6,000  Level Aus ATC (RADAR)
05:37PM -33.9837 151.3608 161° South 250 288 6,000 -240 Level Aus ATC (RADAR)
05:38PM -34.0338 151.3813 161° South 255 293 5,700 -780 Descending Aus ATC (RADAR)
05:38PM -34.0745 151.3974 162° South 263 303 5,000 -1,200 Descending Aus ATC (RADAR)
05:39PM -34.1140 151.4141 161° South 256 295 4,300 -960 Descending Aus ATC (RADAR)
05:40PM -34.1470 151.4193 173° South 245 282 4,000 -600 Descending Aus ATC (RADAR)
05:40PM -34.1700 151.3868 230° Southwest 218 251 3,700 -480 Descending Aus ATC (RADAR)
05:41PM -34.1892 151.3305 248° West 211 243 3,400 -360 Descending Aus ATC (RADAR)
05:42PM -34.1742 151.2962 298° West 203 234 3,200 -300 Descending Aus ATC (RADAR)
05:42PM -34.1478 151.2698 320° Northwest 202 232 3,100 -300 Descending Aus ATC (RADAR)
05:43PM -34.1254 151.2484 322° Northwest 211 243 2,900 -480 Descending Aus ATC (RADAR)
05:43PM -34.0956 151.2280 331° Northwest 212 244 2,600 -900 Descending Aus ATC (RADAR)
05:44PM -34.0656 151.2189 346° North 190 219 1,900 -960 Descending Aus ATC (RADAR)
05:44PM -34.0385 151.2117 347° North 171 197 1,500 -900 Descending Aus ATC (RADAR)
05:45PM -34.0149 151.2052 347° North 149 171 900 -900 Descending Aus ATC (RADAR)
05:46PM -33.9941 151.2000 348° North 132 152 500 -720 Descending Aus ATC (RADAR)